Impacts TAF Board
For situational awareness. Not to be used for flight planning purposes.
IDs:

KELD - El Dorado/S Arkansas, AR, US

Issued at 2340 UTC 05 Dec 2019
Updated at 0100 UTC 06 Dec 2019
Potential Impact None Slight Moderate High
Time0053Z 06/01Z 06/02Z 06/03Z 06/04Z 06/05Z 06/06Z 06/07Z 06/08Z 06/09Z 06/10Z 06/11Z 06/12Z 06/13Z>>
Type OBS PRVL PRVL PRVL PRVL PRVL PRVL PRVL PRVL PRVL PRVL PRVL PRVL PRVL
VIS 10 >6 >6 >6 >6 >6 >6 >6 >6 >6 >6 >6 >6 >6
CIG -- -- -- 100 100 100 100 100 100 100 100 25 25 25
Cover CLR SCT SCT BKN BKN BKN BKN BKN BKN BKN BKN OVC OVC OVC
FltCat VFR VFR VFR VFR VFR VFR VFR VFR VFR VFR VFR MVFR MVFR MVFR
WX -- -- -- -- -- -- -- -- -- -- -- VCSH VCSH VCSH
WDir 150 160 160 160 160 160 160 160 160 160 160 190 190 190
WSpd 4 5 5 6 6 6 6 6 6 6 6 7 7 7
WGst -- -- -- -- -- -- -- -- -- -- -- -- -- --
Raw TAF
KELD 052340Z 0600/0624 16005KT P6SM SCT120 SCT250
  FM060300 16006KT P6SM BKN100
  FM061100 19007KT P6SM VCSH BKN025 OVC080
  FM061700 28005KT P6SM BKN015


Raw METAR
KELD 060053Z AUTO 15004KT 10SM CLR 15/05 A3000 RMK AO2 SLP157 T01500050
KELD 052353Z AUTO 12006KT 10SM CLR 15/05 A2999 RMK AO2 SLP154 T01500050 10206 20150 55000
KELD 052253Z AUTO 14007KT 10SM CLR 17/04 A2999 RMK AO2 SLP154 T01720044
KELD 052153Z AUTO 16009KT 10SM CLR 19/03 A2999 RMK AO2 SLP154 T01890033

METAR Board
Radar Display
Forecast Discussion
For situational awareness. Not to be used for flight planning purposes.